sensor_id;sensor_type;location;lat;lon;timestamp;temperature;humidity
38209;DHT22;24016;52.102;11.584;2022-11-03T00:01:36;5.30;99.90
38209;DHT22;24016;52.102;11.584;2022-11-03T00:04:06;5.30;99.90
38209;DHT22;24016;52.102;11.584;2022-11-03T00:06:35;5.30;99.90
38209;DHT22;24016;52.102;11.584;2022-11-03T00:09:04;5.20;99.90
38209;DHT22;24016;52.102;11.584;2022-11-03T00:11:36;5.20;99.90
38209;DHT22;24016;52.102;11.584;2022-11-03T00:14:03;5.20;99.90
38209;DHT22;24016;52.102;11.584;2022-11-03T00:16:28;5.10;99.90
38209;DHT22;24016;52.102;11.584;2022-11-03T00:18:54;5.10;99.90
38209;DHT22;24016;52.102;11.584;2022-11-03T00:21:21;5.00;99.90
38209;DHT22;24016;52.102;11.584;2022-11-03T00:23:47;5.00;99.90
38209;DHT22;24016;52.102;11.584;2022-11-03T00:26:20;5.00;99.90
38209;DHT22;24016;52.102;11.584;2022-11-03T00:28:54;5.10;99.90
38209;DHT22;24016;52.102;11.584;2022-11-03T00:31:25;5.00;99.90
38209;DHT22;24016;52.102;11.584;2022-11-03T00:33:52;5.00;99.90
38209;DHT22;24016;52.102;11.584;2022-11-03T00:36:23;5.00;99.90
38209;DHT22;24016;52.102;11.584;2022-11-03T00:38:49;4.90;99.90
38209;DHT22;24016;52.102;11.584;2022-11-03T00:41:17;4.90;99.90
38209;DHT22;24016;52.102;11.584;2022-11-03T00:43:45;4.90;99.90
38209;DHT22;24016;52.102;11.584;2022-11-03T00:46:11;4.90;99.90
38209;DHT22;24016;52.102;11.584;2022-11-03T00:48:37;4.90;99.90
38209;DHT22;24016;52.102;11.584;2022-11-03T00:51:07;5.00;99.90
38209;DHT22;24016;52.102;11.584;2022-11-03T00:53:35;5.00;99.90
38209;DHT22;24016;52.102;11.584;2022-11-03T00:56:01;5.00;99.90
38209;DHT22;24016;52.102;11.584;2022-11-03T00:58:27;5.10;99.90
38209;DHT22;24016;52.102;11.584;2022-11-03T01:01:08;5.10;99.90
38209;DHT22;24016;52.102;11.584;2022-11-03T01:03:36;5.10;99.90
38209;DHT22;24016;52.102;11.584;2022-11-03T01:06:05;5.10;99.90
38209;DHT22;24016;52.102;11.584;2022-11-03T01:08:50;5.10;99.90
38209;DHT22;24016;52.102;11.584;2022-11-03T01:11:18;5.10;99.90
38209;DHT22;24016;52.102;11.584;2022-11-03T01:14:03;5.00;99.90
38209;DHT22;24016;52.102;11.584;2022-11-03T01:16:29;5.00;99.90
38209;DHT22;24016;52.102;11.584;2022-11-03T01:18:55;5.10;99.90
38209;DHT22;24016;52.102;11.584;2022-11-03T01:21:21;5.20;99.90
38209;DHT22;24016;52.102;11.584;2022-11-03T01:23:47;5.20;99.90
38209;DHT22;24016;52.102;11.584;2022-11-03T01:26:13;5.30;99.90
38209;DHT22;24016;52.102;11.584;2022-11-03T01:28:41;5.20;99.90
38209;DHT22;24016;52.102;11.584;2022-11-03T01:31:10;5.20;99.90
38209;DHT22;24016;52.102;11.584;2022-11-03T01:33:36;5.10;99.90
38209;DHT22;24016;52.102;11.584;2022-11-03T01:36:02;5.00;99.90
38209;DHT22;24016;52.102;11.584;2022-11-03T01:38:32;4.90;99.90
38209;DHT22;24016;52.102;11.584;2022-11-03T01:40:59;4.90;99.90
38209;DHT22;24016;52.102;11.584;2022-11-03T01:43:25;4.80;99.90
38209;DHT22;24016;52.102;11.584;2022-11-03T01:46:11;4.80;99.90
38209;DHT22;24016;52.102;11.584;2022-11-03T01:48:44;4.80;99.90
38209;DHT22;24016;52.102;11.584;2022-11-03T01:51:13;5.00;99.90
38209;DHT22;24016;52.102;11.584;2022-11-03T01:53:41;5.20;99.90
38209;DHT22;24016;52.102;11.584;2022-11-03T01:56:11;5.40;99.90
38209;DHT22;24016;52.102;11.584;2022-11-03T01:58:39;5.50;99.90
38209;DHT22;24016;52.102;11.584;2022-11-03T02:01:06;5.60;99.90
38209;DHT22;24016;52.102;11.584;2022-11-03T02:03:34;5.50;99.90
38209;DHT22;24016;52.102;11.584;2022-11-03T02:06:02;5.50;99.90
38209;DHT22;24016;52.102;11.584;2022-11-03T02:08:42;5.40;99.90
38209;DHT22;24016;52.102;11.584;2022-11-03T02:11:09;5.30;99.90
38209;DHT22;24016;52.102;11.584;2022-11-03T02:13:54;5.30;99.90
38209;DHT22;24016;52.102;11.584;2022-11-03T02:16:22;5.20;99.90
38209;DHT22;24016;52.102;11.584;2022-11-03T02:18:50;5.20;99.90
38209;DHT22;24016;52.102;11.584;2022-11-03T02:21:37;5.10;99.90
38209;DHT22;24016;52.102;11.584;2022-11-03T02:26:54;5.10;99.90
38209;DHT22;24016;52.102;11.584;2022-11-03T02:29:21;4.90;99.90
38209;DHT22;24016;52.102;11.584;2022-11-03T02:31:57;5.10;99.90
38209;DHT22;24016;52.102;11.584;2022-11-03T02:34:39;5.20;99.90
38209;DHT22;24016;52.102;11.584;2022-11-03T02:37:21;5.20;99.90
38209;DHT22;24016;52.102;11.584;2022-11-03T02:39:54;5.20;99.90
38209;DHT22;24016;52.102;11.584;2022-11-03T02:42:22;5.20;99.90
38209;DHT22;24016;52.102;11.584;2022-11-03T02:44:50;5.20;99.90
38209;DHT22;24016;52.102;11.584;2022-11-03T02:47:17;5.20;99.90
38209;DHT22;24016;52.102;11.584;2022-11-03T02:49:48;5.30;99.90
38209;DHT22;24016;52.102;11.584;2022-11-03T02:52:37;5.40;99.90
38209;DHT22;24016;52.102;11.584;2022-11-03T02:57:35;5.40;99.90
38209;DHT22;24016;52.102;11.584;2022-11-03T03:00:05;5.40;99.90
38209;DHT22;24016;52.102;11.584;2022-11-03T03:02:54;5.30;99.90
38209;DHT22;24016;52.102;11.584;2022-11-03T03:05:25;5.30;99.90
38209;DHT22;24016;52.102;11.584;2022-11-03T03:07:55;5.20;99.90
38209;DHT22;24016;52.102;11.584;2022-11-03T03:10:27;5.10;99.90
38209;DHT22;24016;52.102;11.584;2022-11-03T03:12:56;5.10;99.90
38209;DHT22;24016;52.102;11.584;2022-11-03T03:15:28;5.00;99.90
38209;DHT22;24016;52.102;11.584;2022-11-03T03:18:09;4.90;99.90
38209;DHT22;24016;52.102;11.584;2022-11-03T03:20:54;4.90;99.90
38209;DHT22;24016;52.102;11.584;2022-11-03T03:23:23;5.00;99.90
38209;DHT22;24016;52.102;11.584;2022-11-03T03:26:09;5.10;99.90
38209;DHT22;24016;52.102;11.584;2022-11-03T03:29:05;5.10;99.90
38209;DHT22;24016;52.102;11.584;2022-11-03T03:31:29;5.10;99.90
38209;DHT22;24016;52.102;11.584;2022-11-03T03:33:58;5.00;99.90
38209;DHT22;24016;52.102;11.584;2022-11-03T03:36:25;4.90;99.90
38209;DHT22;24016;52.102;11.584;2022-11-03T03:38:56;4.90;99.90
38209;DHT22;24016;52.102;11.584;2022-11-03T03:41:24;4.80;99.90
38209;DHT22;24016;52.102;11.584;2022-11-03T03:43:53;4.80;99.90
38209;DHT22;24016;52.102;11.584;2022-11-03T03:46:21;4.80;99.90
38209;DHT22;24016;52.102;11.584;2022-11-03T03:48:47;4.70;99.90
38209;DHT22;24016;52.102;11.584;2022-11-03T03:51:15;4.70;99.90
38209;DHT22;24016;52.102;11.584;2022-11-03T03:53:41;4.70;99.90
38209;DHT22;24016;52.102;11.584;2022-11-03T03:56:07;4.60;99.90
38209;DHT22;24016;52.102;11.584;2022-11-03T03:58:33;4.60;99.90
38209;DHT22;24016;52.102;11.584;2022-11-03T04:00:58;4.60;99.90
38209;DHT22;24016;52.102;11.584;2022-11-03T04:03:24;4.60;99.90
38209;DHT22;24016;52.102;11.584;2022-11-03T04:05:52;4.50;99.90
38209;DHT22;24016;52.102;11.584;2022-11-03T04:08:18;4.50;99.90
38209;DHT22;24016;52.102;11.584;2022-11-03T04:10:44;4.40;99.90
38209;DHT22;24016;52.102;11.584;2022-11-03T04:13:31;4.40;99.90
38209;DHT22;24016;52.102;11.584;2022-11-03T04:16:15;4.40;99.90
38209;DHT22;24016;52.102;11.584;2022-11-03T04:19:00;4.30;99.90
38209;DHT22;24016;52.102;11.584;2022-11-03T04:21:45;4.40;99.90
38209;DHT22;24016;52.102;11.584;2022-11-03T04:24:29;4.40;99.90
38209;DHT22;24016;52.102;11.584;2022-11-03T04:27:04;4.40;99.90
38209;DHT22;24016;52.102;11.584;2022-11-03T04:29:36;4.30;99.90
38209;DHT22;24016;52.102;11.584;2022-11-03T04:32:16;4.30;99.90
38209;DHT22;24016;52.102;11.584;2022-11-03T04:34:44;4.40;99.90
38209;DHT22;24016;52.102;11.584;2022-11-03T04:37:14;4.30;99.90
38209;DHT22;24016;52.102;11.584;2022-11-03T04:39:40;4.30;99.90
38209;DHT22;24016;52.102;11.584;2022-11-03T04:42:20;4.30;99.90
38209;DHT22;24016;52.102;11.584;2022-11-03T04:44:48;4.20;99.90
38209;DHT22;24016;52.102;11.584;2022-11-03T04:47:15;4.20;99.90
38209;DHT22;24016;52.102;11.584;2022-11-03T04:49:41;4.20;99.90
38209;DHT22;24016;52.102;11.584;2022-11-03T04:52:20;4.10;99.90
38209;DHT22;24016;52.102;11.584;2022-11-03T04:54:48;4.10;99.90
38209;DHT22;24016;52.102;11.584;2022-11-03T04:57:16;4.10;99.90
38209;DHT22;24016;52.102;11.584;2022-11-03T04:59:47;4.10;99.90
38209;DHT22;24016;52.102;11.584;2022-11-03T05:02:16;4.10;99.90
38209;DHT22;24016;52.102;11.584;2022-11-03T05:04:42;4.10;99.90
38209;DHT22;24016;52.102;11.584;2022-11-03T05:09:45;4.10;99.90
38209;DHT22;24016;52.102;11.584;2022-11-03T05:12:11;4.10;99.90
38209;DHT22;24016;52.102;11.584;2022-11-03T05:14:37;4.10;99.90
38209;DHT22;24016;52.102;11.584;2022-11-03T05:17:10;4.10;99.90
38209;DHT22;24016;52.102;11.584;2022-11-03T05:19:40;4.10;99.90
38209;DHT22;24016;52.102;11.584;2022-11-03T05:22:14;4.10;99.90
38209;DHT22;24016;52.102;11.584;2022-11-03T05:24:40;4.10;99.90
38209;DHT22;24016;52.102;11.584;2022-11-03T05:27:11;4.10;99.90
38209;DHT22;24016;52.102;11.584;2022-11-03T05:29:41;4.10;99.90
38209;DHT22;24016;52.102;11.584;2022-11-03T05:32:28;4.00;99.90
38209;DHT22;24016;52.102;11.584;2022-11-03T05:34:54;4.00;99.90
38209;DHT22;24016;52.102;11.584;2022-11-03T05:39:55;3.90;99.90
38209;DHT22;24016;52.102;11.584;2022-11-03T05:44:48;3.90;99.90
38209;DHT22;24016;52.102;11.584;2022-11-03T05:47:20;3.90;99.90
38209;DHT22;24016;52.102;11.584;2022-11-03T05:49:48;3.90;99.90
38209;DHT22;24016;52.102;11.584;2022-11-03T05:52:19;3.90;99.90
38209;DHT22;24016;52.102;11.584;2022-11-03T05:54:46;4.00;99.90
38209;DHT22;24016;52.102;11.584;2022-11-03T05:57:15;4.00;99.90
38209;DHT22;24016;52.102;11.584;2022-11-03T05:59:43;4.00;99.90
38209;DHT22;24016;52.102;11.584;2022-11-03T06:02:39;4.00;99.90
38209;DHT22;24016;52.102;11.584;2022-11-03T06:05:19;3.90;99.90
38209;DHT22;24016;52.102;11.584;2022-11-03T06:07:46;3.90;99.90
38209;DHT22;24016;52.102;11.584;2022-11-03T06:10:35;3.90;99.90
38209;DHT22;24016;52.102;11.584;2022-11-03T06:13:26;3.90;99.90
38209;DHT22;24016;52.102;11.584;2022-11-03T06:16:04;3.90;99.90
38209;DHT22;24016;52.102;11.584;2022-11-03T06:18:35;3.90;99.90
38209;DHT22;24016;52.102;11.584;2022-11-03T06:21:06;4.00;99.90
38209;DHT22;24016;52.102;11.584;2022-11-03T06:23:34;4.00;99.90
38209;DHT22;24016;52.102;11.584;2022-11-03T06:26:02;4.00;99.90
38209;DHT22;24016;52.102;11.584;2022-11-03T06:28:35;4.00;99.90
38209;DHT22;24016;52.102;11.584;2022-11-03T06:31:03;4.00;99.90
38209;DHT22;24016;52.102;11.584;2022-11-03T06:33:33;4.00;99.90
38209;DHT22;24016;52.102;11.584;2022-11-03T06:36:14;4.00;99.90
38209;DHT22;24016;52.102;11.584;2022-11-03T06:38:41;4.00;99.90
38209;DHT22;24016;52.102;11.584;2022-11-03T06:41:17;4.10;99.90
38209;DHT22;24016;52.102;11.584;2022-11-03T06:43:45;4.10;99.90
38209;DHT22;24016;52.102;11.584;2022-11-03T06:46:20;4.20;99.90
38209;DHT22;24016;52.102;11.584;2022-11-03T06:48:46;4.20;99.90
38209;DHT22;24016;52.102;11.584;2022-11-03T06:51:19;4.20;99.90
38209;DHT22;24016;52.102;11.584;2022-11-03T06:53:45;4.20;99.90
38209;DHT22;24016;52.102;11.584;2022-11-03T06:56:15;4.30;99.90
38209;DHT22;24016;52.102;11.584;2022-11-03T06:58:41;4.30;99.90
38209;DHT22;24016;52.102;11.584;2022-11-03T07:01:14;4.40;99.90
38209;DHT22;24016;52.102;11.584;2022-11-03T07:03:41;4.40;99.90
38209;DHT22;24016;52.102;11.584;2022-11-03T07:08:38;4.50;99.90
38209;DHT22;24016;52.102;11.584;2022-11-03T07:11:17;4.60;99.90
38209;DHT22;24016;52.102;11.584;2022-11-03T07:13:48;4.70;99.90
38209;DHT22;24016;52.102;11.584;2022-11-03T07:19:09;4.90;99.90
38209;DHT22;24016;52.102;11.584;2022-11-03T07:26:59;5.40;99.90
38209;DHT22;24016;52.102;11.584;2022-11-03T07:29:28;5.50;99.90
38209;DHT22;24016;52.102;11.584;2022-11-03T07:31:56;5.60;99.90
38209;DHT22;24016;52.102;11.584;2022-11-03T07:34:24;5.70;99.90
38209;DHT22;24016;52.102;11.584;2022-11-03T07:36:52;5.80;99.90
38209;DHT22;24016;52.102;11.584;2022-11-03T07:39:19;5.80;99.90
38209;DHT22;24016;52.102;11.584;2022-11-03T07:41:46;5.90;99.90
38209;DHT22;24016;52.102;11.584;2022-11-03T07:44:19;6.00;99.90
38209;DHT22;24016;52.102;11.584;2022-11-03T07:46:46;6.20;99.90
38209;DHT22;24016;52.102;11.584;2022-11-03T07:49:28;6.30;99.90
38209;DHT22;24016;52.102;11.584;2022-11-03T07:51:55;6.40;99.90
38209;DHT22;24016;52.102;11.584;2022-11-03T07:54:25;6.40;99.90
38209;DHT22;24016;52.102;11.584;2022-11-03T07:56:59;6.50;99.90
38209;DHT22;24016;52.102;11.584;2022-11-03T07:59:39;6.50;99.90
38209;DHT22;24016;52.102;11.584;2022-11-03T08:04:49;6.60;99.90
38209;DHT22;24016;52.102;11.584;2022-11-03T08:07:14;6.70;99.90
38209;DHT22;24016;52.102;11.584;2022-11-03T08:09:40;6.80;99.90
38209;DHT22;24016;52.102;11.584;2022-11-03T08:12:06;6.80;99.90
38209;DHT22;24016;52.102;11.584;2022-11-03T08:14:31;6.90;99.90
38209;DHT22;24016;52.102;11.584;2022-11-03T08:16:57;7.00;99.90
38209;DHT22;24016;52.102;11.584;2022-11-03T08:19:22;7.00;99.90
38209;DHT22;24016;52.102;11.584;2022-11-03T08:21:48;7.10;99.90
38209;DHT22;24016;52.102;11.584;2022-11-03T08:24:13;7.20;99.90
38209;DHT22;24016;52.102;11.584;2022-11-03T08:26:39;7.20;99.90
38209;DHT22;24016;52.102;11.584;2022-11-03T08:29:04;7.30;99.90
38209;DHT22;24016;52.102;11.584;2022-11-03T08:31:30;7.40;99.90
38209;DHT22;24016;52.102;11.584;2022-11-03T08:33:56;7.40;99.90
38209;DHT22;24016;52.102;11.584;2022-11-03T08:36:21;7.50;99.90
38209;DHT22;24016;52.102;11.584;2022-11-03T08:38:47;7.70;99.90
38209;DHT22;24016;52.102;11.584;2022-11-03T08:41:12;7.70;99.90
38209;DHT22;24016;52.102;11.584;2022-11-03T08:43:38;7.80;99.90
38209;DHT22;24016;52.102;11.584;2022-11-03T08:46:04;8.00;99.90
38209;DHT22;24016;52.102;11.584;2022-11-03T08:48:30;8.00;99.90
38209;DHT22;24016;52.102;11.584;2022-11-03T08:50:55;8.00;99.90
38209;DHT22;24016;52.102;11.584;2022-11-03T08:53:22;8.00;99.90
38209;DHT22;24016;52.102;11.584;2022-11-03T08:55:48;8.10;99.90
38209;DHT22;24016;52.102;11.584;2022-11-03T08:58:14;8.10;99.90
38209;DHT22;24016;52.102;11.584;2022-11-03T09:00:40;8.20;99.90
38209;DHT22;24016;52.102;11.584;2022-11-03T09:03:05;8.10;99.90
38209;DHT22;24016;52.102;11.584;2022-11-03T09:05:31;8.10;99.90
38209;DHT22;24016;52.102;11.584;2022-11-03T09:07:57;8.10;99.90
38209;DHT22;24016;52.102;11.584;2022-11-03T09:10:22;8.10;99.90
38209;DHT22;24016;52.102;11.584;2022-11-03T09:12:48;8.20;99.90
38209;DHT22;24016;52.102;11.584;2022-11-03T09:15:13;8.20;99.90
38209;DHT22;24016;52.102;11.584;2022-11-03T09:17:39;8.20;99.90
38209;DHT22;24016;52.102;11.584;2022-11-03T09:20:05;8.20;99.90
38209;DHT22;24016;52.102;11.584;2022-11-03T09:22:31;8.20;99.90
38209;DHT22;24016;52.102;11.584;2022-11-03T09:24:57;8.30;99.90
38209;DHT22;24016;52.102;11.584;2022-11-03T09:27:23;8.30;99.90
38209;DHT22;24016;52.102;11.584;2022-11-03T09:29:48;8.40;99.90
38209;DHT22;24016;52.102;11.584;2022-11-03T09:32:14;8.40;99.90
38209;DHT22;24016;52.102;11.584;2022-11-03T09:34:40;8.50;99.90
38209;DHT22;24016;52.102;11.584;2022-11-03T09:37:06;8.50;99.90
38209;DHT22;24016;52.102;11.584;2022-11-03T09:39:32;8.60;99.90
38209;DHT22;24016;52.102;11.584;2022-11-03T09:41:59;8.70;99.90
38209;DHT22;24016;52.102;11.584;2022-11-03T09:44:25;8.80;99.90
38209;DHT22;24016;52.102;11.584;2022-11-03T09:46:51;8.90;99.90
38209;DHT22;24016;52.102;11.584;2022-11-03T09:49:19;9.00;99.90
38209;DHT22;24016;52.102;11.584;2022-11-03T09:51:45;9.00;99.90
38209;DHT22;24016;52.102;11.584;2022-11-03T09:54:13;9.10;99.90
38209;DHT22;24016;52.102;11.584;2022-11-03T09:56:42;9.20;99.90
38209;DHT22;24016;52.102;11.584;2022-11-03T09:59:19;9.30;99.90
38209;DHT22;24016;52.102;11.584;2022-11-03T10:01:46;9.30;99.90
38209;DHT22;24016;52.102;11.584;2022-11-03T10:04:17;9.30;99.90
38209;DHT22;24016;52.102;11.584;2022-11-03T10:06:45;9.40;99.90
38209;DHT22;24016;52.102;11.584;2022-11-03T10:09:14;9.50;99.90
38209;DHT22;24016;52.102;11.584;2022-11-03T10:11:42;9.60;99.90
38209;DHT22;24016;52.102;11.584;2022-11-03T10:14:10;9.70;99.90
38209;DHT22;24016;52.102;11.584;2022-11-03T10:16:39;9.80;99.90
38209;DHT22;24016;52.102;11.584;2022-11-03T10:19:11;9.90;99.90
38209;DHT22;24016;52.102;11.584;2022-11-03T10:21:38;10.10;99.90
38209;DHT22;24016;52.102;11.584;2022-11-03T10:24:04;10.20;99.90
38209;DHT22;24016;52.102;11.584;2022-11-03T10:26:43;10.30;99.90
38209;DHT22;24016;52.102;11.584;2022-11-03T10:29:33;10.50;99.90
38209;DHT22;24016;52.102;11.584;2022-11-03T10:31:59;10.40;99.90
38209;DHT22;24016;52.102;11.584;2022-11-03T10:34:51;10.50;99.90
38209;DHT22;24016;52.102;11.584;2022-11-03T10:37:18;10.40;99.90
38209;DHT22;24016;52.102;11.584;2022-11-03T10:39:51;10.40;99.90
38209;DHT22;24016;52.102;11.584;2022-11-03T10:42:22;10.40;99.90
38209;DHT22;24016;52.102;11.584;2022-11-03T10:45:14;10.60;99.90
38209;DHT22;24016;52.102;11.584;2022-11-03T10:47:40;10.70;99.90
38209;DHT22;24016;52.102;11.584;2022-11-03T10:50:23;10.70;99.90
38209;DHT22;24016;52.102;11.584;2022-11-03T10:52:50;10.80;99.90
38209;DHT22;24016;52.102;11.584;2022-11-03T10:55:17;10.90;99.90
38209;DHT22;24016;52.102;11.584;2022-11-03T10:57:43;11.00;99.90
38209;DHT22;24016;52.102;11.584;2022-11-03T11:00:13;11.40;99.90
38209;DHT22;24016;52.102;11.584;2022-11-03T11:02:40;11.80;99.90
38209;DHT22;24016;52.102;11.584;2022-11-03T11:05:20;12.20;99.90
38209;DHT22;24016;52.102;11.584;2022-11-03T11:07:47;12.50;99.90
38209;DHT22;24016;52.102;11.584;2022-11-03T11:10:18;13.00;99.90
38209;DHT22;24016;52.102;11.584;2022-11-03T11:15:41;13.60;99.90
38209;DHT22;24016;52.102;11.584;2022-11-03T11:18:08;14.20;99.90
38209;DHT22;24016;52.102;11.584;2022-11-03T11:20:38;14.40;99.90
38209;DHT22;24016;52.102;11.584;2022-11-03T11:31:30;16.00;99.90
38209;DHT22;24016;52.102;11.584;2022-11-03T11:36:38;16.00;99.90
38209;DHT22;24016;52.102;11.584;2022-11-03T11:39:12;15.90;99.90
38209;DHT22;24016;52.102;11.584;2022-11-03T11:49:47;15.50;99.90
38209;DHT22;24016;52.102;11.584;2022-11-03T11:52:13;15.90;99.90
38209;DHT22;24016;52.102;11.584;2022-11-03T11:54:42;15.70;99.90
38209;DHT22;24016;52.102;11.584;2022-11-03T11:57:18;15.80;99.90
38209;DHT22;24016;52.102;11.584;2022-11-03T11:59:48;15.50;99.90
38209;DHT22;24016;52.102;11.584;2022-11-03T12:02:19;15.60;99.90
38209;DHT22;24016;52.102;11.584;2022-11-03T12:04:48;15.60;99.90
38209;DHT22;24016;52.102;11.584;2022-11-03T12:07:16;15.30;99.90
38209;DHT22;24016;52.102;11.584;2022-11-03T12:09:41;15.00;99.90
38209;DHT22;24016;52.102;11.584;2022-11-03T12:12:07;14.90;99.90
38209;DHT22;24016;52.102;11.584;2022-11-03T12:14:35;14.70;99.90
38209;DHT22;24016;52.102;11.584;2022-11-03T12:19:53;14.40;99.90
38209;DHT22;24016;52.102;11.584;2022-11-03T12:25:03;14.20;99.90
38209;DHT22;24016;52.102;11.584;2022-11-03T12:30:12;14.00;99.90
38209;DHT22;24016;52.102;11.584;2022-11-03T12:32:38;13.80;99.90
38209;DHT22;24016;52.102;11.584;2022-11-03T12:35:04;13.60;99.90
38209;DHT22;24016;52.102;11.584;2022-11-03T12:37:31;13.70;99.90
38209;DHT22;24016;52.102;11.584;2022-11-03T12:39:56;13.50;99.90
38209;DHT22;24016;52.102;11.584;2022-11-03T12:42:22;13.30;99.90
38209;DHT22;24016;52.102;11.584;2022-11-03T12:44:49;13.20;99.90
38209;DHT22;24016;52.102;11.584;2022-11-03T12:47:15;13.10;99.90
38209;DHT22;24016;52.102;11.584;2022-11-03T12:49:40;13.00;99.90
38209;DHT22;24016;52.102;11.584;2022-11-03T12:52:06;13.00;99.90
38209;DHT22;24016;52.102;11.584;2022-11-03T12:54:32;12.90;99.90
38209;DHT22;24016;52.102;11.584;2022-11-03T12:56:58;13.00;99.90
38209;DHT22;24016;52.102;11.584;2022-11-03T12:59:24;12.90;99.90
38209;DHT22;24016;52.102;11.584;2022-11-03T13:01:50;12.90;99.90
38209;DHT22;24016;52.102;11.584;2022-11-03T13:04:15;12.90;99.90
38209;DHT22;24016;52.102;11.584;2022-11-03T13:06:41;12.90;99.90
38209;DHT22;24016;52.102;11.584;2022-11-03T13:09:07;12.90;99.90
38209;DHT22;24016;52.102;11.584;2022-11-03T13:11:32;12.90;99.90
38209;DHT22;24016;52.102;11.584;2022-11-03T13:14:16;13.00;99.90
38209;DHT22;24016;52.102;11.584;2022-11-03T13:16:42;12.90;99.90
38209;DHT22;24016;52.102;11.584;2022-11-03T13:19:07;12.80;99.90
38209;DHT22;24016;52.102;11.584;2022-11-03T13:21:35;12.90;99.90
38209;DHT22;24016;52.102;11.584;2022-11-03T13:24:01;12.80;99.90
38209;DHT22;24016;52.102;11.584;2022-11-03T13:26:26;12.80;99.90
38209;DHT22;24016;52.102;11.584;2022-11-03T13:28:52;12.70;99.90
38209;DHT22;24016;52.102;11.584;2022-11-03T13:31:17;12.70;99.90
38209;DHT22;24016;52.102;11.584;2022-11-03T13:33:43;12.60;99.90
38209;DHT22;24016;52.102;11.584;2022-11-03T13:36:08;12.60;99.90
38209;DHT22;24016;52.102;11.584;2022-11-03T13:38:34;12.40;99.90
38209;DHT22;24016;52.102;11.584;2022-11-03T13:40:59;12.30;99.90
38209;DHT22;24016;52.102;11.584;2022-11-03T13:43:25;12.20;99.90
38209;DHT22;24016;52.102;11.584;2022-11-03T13:45:50;12.20;99.90
38209;DHT22;24016;52.102;11.584;2022-11-03T13:48:17;12.10;99.90
38209;DHT22;24016;52.102;11.584;2022-11-03T13:50:44;12.00;99.90
38209;DHT22;24016;52.102;11.584;2022-11-03T13:53:09;12.00;99.90
38209;DHT22;24016;52.102;11.584;2022-11-03T13:55:35;12.00;99.90
38209;DHT22;24016;52.102;11.584;2022-11-03T13:58:00;11.90;99.90
38209;DHT22;24016;52.102;11.584;2022-11-03T14:00:26;11.90;99.90
38209;DHT22;24016;52.102;11.584;2022-11-03T14:02:52;11.80;99.90
38209;DHT22;24016;52.102;11.584;2022-11-03T14:05:18;11.80;99.90
38209;DHT22;24016;52.102;11.584;2022-11-03T14:07:43;11.70;99.90
38209;DHT22;24016;52.102;11.584;2022-11-03T14:10:09;11.80;99.90
38209;DHT22;24016;52.102;11.584;2022-11-03T14:12:35;11.70;99.90
38209;DHT22;24016;52.102;11.584;2022-11-03T14:15:04;11.70;99.90
38209;DHT22;24016;52.102;11.584;2022-11-03T14:17:31;11.80;99.90
38209;DHT22;24016;52.102;11.584;2022-11-03T14:19:57;11.80;99.90
38209;DHT22;24016;52.102;11.584;2022-11-03T14:22:23;11.80;99.90
38209;DHT22;24016;52.102;11.584;2022-11-03T14:24:49;11.80;99.90
38209;DHT22;24016;52.102;11.584;2022-11-03T14:27:16;11.90;99.90
38209;DHT22;24016;52.102;11.584;2022-11-03T14:29:42;11.90;99.90
38209;DHT22;24016;52.102;11.584;2022-11-03T14:32:09;11.90;99.90
38209;DHT22;24016;52.102;11.584;2022-11-03T14:34:34;11.90;99.90
38209;DHT22;24016;52.102;11.584;2022-11-03T14:37:00;11.90;99.90
38209;DHT22;24016;52.102;11.584;2022-11-03T14:39:26;11.90;99.90
38209;DHT22;24016;52.102;11.584;2022-11-03T14:41:55;11.90;99.90
38209;DHT22;24016;52.102;11.584;2022-11-03T14:44:37;11.80;99.90
38209;DHT22;24016;52.102;11.584;2022-11-03T14:47:05;11.70;99.90
38209;DHT22;24016;52.102;11.584;2022-11-03T14:49:32;11.60;99.90
38209;DHT22;24016;52.102;11.584;2022-11-03T14:51:59;11.50;99.90
38209;DHT22;24016;52.102;11.584;2022-11-03T14:54:26;11.40;99.90
38209;DHT22;24016;52.102;11.584;2022-11-03T14:56:52;11.30;99.90
38209;DHT22;24016;52.102;11.584;2022-11-03T14:59:18;11.30;99.90
38209;DHT22;24016;52.102;11.584;2022-11-03T15:01:45;11.20;99.90
38209;DHT22;24016;52.102;11.584;2022-11-03T15:04:12;11.10;99.90
38209;DHT22;24016;52.102;11.584;2022-11-03T15:06:38;11.10;99.90
38209;DHT22;24016;52.102;11.584;2022-11-03T15:09:04;11.00;99.90
38209;DHT22;24016;52.102;11.584;2022-11-03T15:11:31;11.00;99.90
38209;DHT22;24016;52.102;11.584;2022-11-03T15:13:56;10.90;99.90
38209;DHT22;24016;52.102;11.584;2022-11-03T15:16:22;10.80;99.90
38209;DHT22;24016;52.102;11.584;2022-11-03T15:18:49;10.80;99.90
38209;DHT22;24016;52.102;11.584;2022-11-03T15:21:14;10.70;99.90
38209;DHT22;24016;52.102;11.584;2022-11-03T15:23:40;10.60;99.90
38209;DHT22;24016;52.102;11.584;2022-11-03T15:26:05;10.60;99.90
38209;DHT22;24016;52.102;11.584;2022-11-03T15:28:31;10.60;99.90
38209;DHT22;24016;52.102;11.584;2022-11-03T15:30:57;10.50;99.90
38209;DHT22;24016;52.102;11.584;2022-11-03T15:33:22;10.50;99.90
38209;DHT22;24016;52.102;11.584;2022-11-03T15:35:48;10.40;99.90
38209;DHT22;24016;52.102;11.584;2022-11-03T15:38:14;10.40;99.90
38209;DHT22;24016;52.102;11.584;2022-11-03T15:40:39;10.30;99.90
38209;DHT22;24016;52.102;11.584;2022-11-03T15:43:05;10.30;99.90
38209;DHT22;24016;52.102;11.584;2022-11-03T15:45:32;10.20;99.90
38209;DHT22;24016;52.102;11.584;2022-11-03T15:47:58;10.20;99.90
38209;DHT22;24016;52.102;11.584;2022-11-03T15:50:24;10.20;99.90
38209;DHT22;24016;52.102;11.584;2022-11-03T15:52:50;10.20;99.90
38209;DHT22;24016;52.102;11.584;2022-11-03T15:55:16;10.20;99.90
38209;DHT22;24016;52.102;11.584;2022-11-03T15:57:42;10.30;99.90
38209;DHT22;24016;52.102;11.584;2022-11-03T16:00:10;10.30;99.90
38209;DHT22;24016;52.102;11.584;2022-11-03T16:02:36;10.30;99.90
38209;DHT22;24016;52.102;11.584;2022-11-03T16:05:02;10.30;99.90
38209;DHT22;24016;52.102;11.584;2022-11-03T16:07:28;10.30;99.90
38209;DHT22;24016;52.102;11.584;2022-11-03T16:09:54;10.30;99.90
38209;DHT22;24016;52.102;11.584;2022-11-03T16:12:21;10.30;99.90
38209;DHT22;24016;52.102;11.584;2022-11-03T16:14:48;10.20;99.90
38209;DHT22;24016;52.102;11.584;2022-11-03T16:17:14;10.20;99.90
38209;DHT22;24016;52.102;11.584;2022-11-03T16:19:40;10.20;99.90
38209;DHT22;24016;52.102;11.584;2022-11-03T16:22:05;10.20;99.90
38209;DHT22;24016;52.102;11.584;2022-11-03T16:24:31;10.20;99.90
38209;DHT22;24016;52.102;11.584;2022-11-03T16:26:56;10.10;99.90
38209;DHT22;24016;52.102;11.584;2022-11-03T16:29:22;10.00;99.90
38209;DHT22;24016;52.102;11.584;2022-11-03T16:31:48;10.00;99.90
38209;DHT22;24016;52.102;11.584;2022-11-03T16:34:15;9.90;99.90